sensor_id;sensor_type;location;lat;lon;timestamp;P1;durP1;ratioP1;P2;durP2;ratioP2
22603;SDS011;11469;49.024;8.246;2022-11-15T00:00:53;27.33;;;16.92;;
22603;SDS011;11469;49.024;8.246;2022-11-15T00:03:19;29.58;;;18.25;;
22603;SDS011;11469;49.024;8.246;2022-11-15T00:05:46;30.67;;;18.23;;
22603;SDS011;11469;49.024;8.246;2022-11-15T00:08:12;25.35;;;16.27;;
22603;SDS011;11469;49.024;8.246;2022-11-15T00:10:38;26.45;;;17.73;;
22603;SDS011;11469;49.024;8.246;2022-11-15T00:13:04;32.80;;;18.25;;
22603;SDS011;11469;49.024;8.246;2022-11-15T00:15:34;33.47;;;17.85;;
22603;SDS011;11469;49.024;8.246;2022-11-15T00:18:01;28.67;;;17.77;;
22603;SDS011;11469;49.024;8.246;2022-11-15T00:20:27;25.80;;;15.50;;
22603;SDS011;11469;49.024;8.246;2022-11-15T00:22:52;24.98;;;14.88;;
22603;SDS011;11469;49.024;8.246;2022-11-15T00:25:18;30.92;;;14.77;;
22603;SDS011;11469;49.024;8.246;2022-11-15T00:27:43;22.52;;;15.32;;
22603;SDS011;11469;49.024;8.246;2022-11-15T00:30:10;27.65;;;15.98;;
22603;SDS011;11469;49.024;8.246;2022-11-15T00:32:36;25.75;;;15.82;;
22603;SDS011;11469;49.024;8.246;2022-11-15T00:35:01;27.77;;;16.00;;
22603;SDS011;11469;49.024;8.246;2022-11-15T00:37:26;25.05;;;15.38;;
22603;SDS011;11469;49.024;8.246;2022-11-15T00:39:52;21.63;;;14.02;;
22603;SDS011;11469;49.024;8.246;2022-11-15T00:42:17;26.45;;;16.83;;
22603;SDS011;11469;49.024;8.246;2022-11-15T00:44:43;26.00;;;16.42;;
22603;SDS011;11469;49.024;8.246;2022-11-15T00:47:08;27.98;;;16.13;;
22603;SDS011;11469;49.024;8.246;2022-11-15T00:49:33;23.77;;;15.60;;
22603;SDS011;11469;49.024;8.246;2022-11-15T00:51:59;28.90;;;17.08;;
22603;SDS011;11469;49.024;8.246;2022-11-15T00:54:24;30.17;;;16.65;;
22603;SDS011;11469;49.024;8.246;2022-11-15T00:56:49;29.70;;;17.50;;
22603;SDS011;11469;49.024;8.246;2022-11-15T00:59:15;27.75;;;18.00;;
22603;SDS011;11469;49.024;8.246;2022-11-15T01:01:40;28.90;;;19.08;;
22603;SDS011;11469;49.024;8.246;2022-11-15T01:04:05;26.80;;;17.08;;
22603;SDS011;11469;49.024;8.246;2022-11-15T01:06:31;27.98;;;17.50;;
22603;SDS011;11469;49.024;8.246;2022-11-15T01:08:56;27.75;;;17.58;;
22603;SDS011;11469;49.024;8.246;2022-11-15T01:11:22;26.88;;;17.25;;
22603;SDS011;11469;49.024;8.246;2022-11-15T01:13:47;27.83;;;17.58;;
22603;SDS011;11469;49.024;8.246;2022-11-15T01:16:13;32.63;;;18.55;;
22603;SDS011;11469;49.024;8.246;2022-11-15T01:18:42;30.88;;;19.25;;
22603;SDS011;11469;49.024;8.246;2022-11-15T01:21:09;30.17;;;19.30;;
22603;SDS011;11469;49.024;8.246;2022-11-15T01:23:36;29.85;;;17.45;;
22603;SDS011;11469;49.024;8.246;2022-11-15T01:26:03;38.53;;;20.58;;
22603;SDS011;11469;49.024;8.246;2022-11-15T01:28:34;29.52;;;18.48;;
22603;SDS011;11469;49.024;8.246;2022-11-15T01:31:02;27.67;;;16.48;;
22603;SDS011;11469;49.024;8.246;2022-11-15T01:33:29;27.33;;;17.20;;
22603;SDS011;11469;49.024;8.246;2022-11-15T01:35:55;32.47;;;17.00;;
22603;SDS011;11469;49.024;8.246;2022-11-15T01:38:21;26.52;;;16.05;;
22603;SDS011;11469;49.024;8.246;2022-11-15T01:40:47;23.77;;;15.57;;
22603;SDS011;11469;49.024;8.246;2022-11-15T01:43:20;27.75;;;16.35;;
22603;SDS011;11469;49.024;8.246;2022-11-15T01:45:52;26.15;;;15.60;;
22603;SDS011;11469;49.024;8.246;2022-11-15T01:48:26;30.45;;;15.18;;
22603;SDS011;11469;49.024;8.246;2022-11-15T01:50:58;29.85;;;18.02;;
22603;SDS011;11469;49.024;8.246;2022-11-15T01:53:26;29.63;;;17.23;;
22603;SDS011;11469;49.024;8.246;2022-11-15T01:55:54;33.33;;;20.10;;
22603;SDS011;11469;49.024;8.246;2022-11-15T01:58:20;30.65;;;18.13;;
22603;SDS011;11469;49.024;8.246;2022-11-15T02:00:45;30.48;;;18.98;;
22603;SDS011;11469;49.024;8.246;2022-11-15T02:03:12;26.45;;;17.48;;
22603;SDS011;11469;49.024;8.246;2022-11-15T02:05:38;33.42;;;18.73;;
22603;SDS011;11469;49.024;8.246;2022-11-15T02:08:05;26.05;;;16.02;;
22603;SDS011;11469;49.024;8.246;2022-11-15T02:10:32;22.45;;;14.57;;
22603;SDS011;11469;49.024;8.246;2022-11-15T02:12:58;25.10;;;16.05;;
22603;SDS011;11469;49.024;8.246;2022-11-15T02:15:26;26.30;;;15.00;;
22603;SDS011;11469;49.024;8.246;2022-11-15T02:20:41;20.23;;;13.30;;
22603;SDS011;11469;49.024;8.246;2022-11-15T02:26:14;29.15;;;16.23;;
22603;SDS011;11469;49.024;8.246;2022-11-15T02:29:15;21.65;;;14.23;;
22603;SDS011;11469;49.024;8.246;2022-11-15T02:32:14;20.35;;;13.98;;
22603;SDS011;11469;49.024;8.246;2022-11-15T02:35:02;24.30;;;14.32;;
22603;SDS011;11469;49.024;8.246;2022-11-15T02:42:56;27.35;;;15.07;;
22603;SDS011;11469;49.024;8.246;2022-11-15T02:45:44;21.50;;;14.02;;
22603;SDS011;11469;49.024;8.246;2022-11-15T02:48:17;23.60;;;14.35;;
22603;SDS011;11469;49.024;8.246;2022-11-15T02:50:46;25.48;;;14.38;;
22603;SDS011;11469;49.024;8.246;2022-11-15T02:53:12;23.05;;;13.43;;
22603;SDS011;11469;49.024;8.246;2022-11-15T02:55:46;21.05;;;13.95;;
22603;SDS011;11469;49.024;8.246;2022-11-15T02:58:23;23.05;;;13.63;;
22603;SDS011;11469;49.024;8.246;2022-11-15T03:01:00;24.77;;;13.98;;
22603;SDS011;11469;49.024;8.246;2022-11-15T03:06:24;23.02;;;14.70;;
22603;SDS011;11469;49.024;8.246;2022-11-15T03:09:10;25.27;;;15.05;;
22603;SDS011;11469;49.024;8.246;2022-11-15T03:11:39;30.10;;;14.27;;
22603;SDS011;11469;49.024;8.246;2022-11-15T03:19:47;27.17;;;15.07;;
22603;SDS011;11469;49.024;8.246;2022-11-15T03:22:18;22.05;;;14.73;;
22603;SDS011;11469;49.024;8.246;2022-11-15T03:24:50;21.38;;;12.88;;
22603;SDS011;11469;49.024;8.246;2022-11-15T03:27:20;20.20;;;13.35;;
22603;SDS011;11469;49.024;8.246;2022-11-15T03:29:50;22.58;;;14.00;;
22603;SDS011;11469;49.024;8.246;2022-11-15T03:32:22;22.45;;;13.25;;
22603;SDS011;11469;49.024;8.246;2022-11-15T03:35:10;21.42;;;14.25;;
22603;SDS011;11469;49.024;8.246;2022-11-15T03:37:55;21.08;;;13.88;;
22603;SDS011;11469;49.024;8.246;2022-11-15T03:40:25;22.95;;;14.48;;
22603;SDS011;11469;49.024;8.246;2022-11-15T03:45:46;19.90;;;13.50;;
22603;SDS011;11469;49.024;8.246;2022-11-15T03:48:21;30.63;;;14.48;;
22603;SDS011;11469;49.024;8.246;2022-11-15T03:50:50;24.70;;;14.48;;
22603;SDS011;11469;49.024;8.246;2022-11-15T03:53:16;22.00;;;13.50;;
22603;SDS011;11469;49.024;8.246;2022-11-15T03:55:41;31.13;;;15.77;;
22603;SDS011;11469;49.024;8.246;2022-11-15T03:58:07;28.55;;;16.27;;
22603;SDS011;11469;49.024;8.246;2022-11-15T04:00:33;24.35;;;15.32;;
22603;SDS011;11469;49.024;8.246;2022-11-15T04:02:58;28.77;;;14.88;;
22603;SDS011;11469;49.024;8.246;2022-11-15T04:05:23;23.40;;;14.07;;
22603;SDS011;11469;49.024;8.246;2022-11-15T04:07:49;26.50;;;16.73;;
22603;SDS011;11469;49.024;8.246;2022-11-15T04:10:14;32.08;;;15.95;;
22603;SDS011;11469;49.024;8.246;2022-11-15T04:12:41;28.17;;;16.80;;
22603;SDS011;11469;49.024;8.246;2022-11-15T04:15:16;27.35;;;16.52;;
22603;SDS011;11469;49.024;8.246;2022-11-15T04:20:17;29.77;;;17.20;;
22603;SDS011;11469;49.024;8.246;2022-11-15T04:23:12;30.52;;;17.98;;
22603;SDS011;11469;49.024;8.246;2022-11-15T04:26:03;27.20;;;17.85;;
22603;SDS011;11469;49.024;8.246;2022-11-15T04:28:30;26.08;;;16.50;;
22603;SDS011;11469;49.024;8.246;2022-11-15T04:30:56;23.75;;;15.45;;
22603;SDS011;11469;49.024;8.246;2022-11-15T04:33:22;29.20;;;16.65;;
22603;SDS011;11469;49.024;8.246;2022-11-15T04:35:48;26.77;;;14.65;;
22603;SDS011;11469;49.024;8.246;2022-11-15T04:38:34;27.83;;;15.75;;
22603;SDS011;11469;49.024;8.246;2022-11-15T04:40:59;22.55;;;15.85;;
22603;SDS011;11469;49.024;8.246;2022-11-15T04:43:25;29.75;;;19.52;;
22603;SDS011;11469;49.024;8.246;2022-11-15T04:45:50;42.22;;;24.02;;
22603;SDS011;11469;49.024;8.246;2022-11-15T04:48:16;28.13;;;17.08;;
22603;SDS011;11469;49.024;8.246;2022-11-15T04:50:41;33.63;;;20.15;;
22603;SDS011;11469;49.024;8.246;2022-11-15T04:53:07;29.90;;;18.15;;
22603;SDS011;11469;49.024;8.246;2022-11-15T04:55:32;36.63;;;20.02;;
22603;SDS011;11469;49.024;8.246;2022-11-15T04:58:01;24.65;;;14.88;;
22603;SDS011;11469;49.024;8.246;2022-11-15T05:00:28;25.27;;;15.95;;
22603;SDS011;11469;49.024;8.246;2022-11-15T05:02:54;25.40;;;15.00;;
22603;SDS011;11469;49.024;8.246;2022-11-15T05:05:39;30.23;;;17.00;;
22603;SDS011;11469;49.024;8.246;2022-11-15T05:08:05;27.63;;;15.50;;
22603;SDS011;11469;49.024;8.246;2022-11-15T05:10:30;22.08;;;15.10;;
22603;SDS011;11469;49.024;8.246;2022-11-15T05:12:56;26.65;;;15.57;;
22603;SDS011;11469;49.024;8.246;2022-11-15T05:15:21;29.77;;;14.38;;
22603;SDS011;11469;49.024;8.246;2022-11-15T05:17:46;24.95;;;12.48;;
22603;SDS011;11469;49.024;8.246;2022-11-15T05:20:12;20.83;;;13.40;;
22603;SDS011;11469;49.024;8.246;2022-11-15T05:22:38;20.83;;;13.07;;
22603;SDS011;11469;49.024;8.246;2022-11-15T05:25:04;20.92;;;12.75;;
22603;SDS011;11469;49.024;8.246;2022-11-15T05:27:30;26.88;;;13.77;;
22603;SDS011;11469;49.024;8.246;2022-11-15T05:29:55;24.30;;;12.80;;
22603;SDS011;11469;49.024;8.246;2022-11-15T05:32:21;21.10;;;11.98;;
22603;SDS011;11469;49.024;8.246;2022-11-15T05:34:46;18.83;;;11.70;;
22603;SDS011;11469;49.024;8.246;2022-11-15T05:37:12;23.42;;;12.52;;
22603;SDS011;11469;49.024;8.246;2022-11-15T05:39:38;26.38;;;12.38;;
22603;SDS011;11469;49.024;8.246;2022-11-15T05:42:11;21.00;;;12.13;;
22603;SDS011;11469;49.024;8.246;2022-11-15T05:44:38;24.52;;;12.32;;
22603;SDS011;11469;49.024;8.246;2022-11-15T05:47:10;24.75;;;13.30;;
22603;SDS011;11469;49.024;8.246;2022-11-15T05:49:39;18.23;;;12.07;;
22603;SDS011;11469;49.024;8.246;2022-11-15T05:52:08;16.30;;;11.85;;
22603;SDS011;11469;49.024;8.246;2022-11-15T05:54:38;19.33;;;12.40;;
22603;SDS011;11469;49.024;8.246;2022-11-15T05:57:04;22.70;;;13.00;;
22603;SDS011;11469;49.024;8.246;2022-11-15T05:59:30;21.85;;;12.30;;
22603;SDS011;11469;49.024;8.246;2022-11-15T06:01:57;20.75;;;12.45;;
22603;SDS011;11469;49.024;8.246;2022-11-15T06:04:22;19.42;;;12.65;;
22603;SDS011;11469;49.024;8.246;2022-11-15T06:06:48;18.08;;;11.52;;
22603;SDS011;11469;49.024;8.246;2022-11-15T06:09:13;21.95;;;13.25;;
22603;SDS011;11469;49.024;8.246;2022-11-15T06:11:39;24.88;;;14.45;;
22603;SDS011;11469;49.024;8.246;2022-11-15T06:14:04;22.98;;;13.77;;
22603;SDS011;11469;49.024;8.246;2022-11-15T06:16:30;23.40;;;12.98;;
22603;SDS011;11469;49.024;8.246;2022-11-15T06:18:55;27.92;;;14.68;;
22603;SDS011;11469;49.024;8.246;2022-11-15T06:21:20;23.15;;;13.63;;
22603;SDS011;11469;49.024;8.246;2022-11-15T06:23:46;21.15;;;14.73;;
22603;SDS011;11469;49.024;8.246;2022-11-15T06:26:12;21.75;;;12.07;;
22603;SDS011;11469;49.024;8.246;2022-11-15T06:28:37;23.33;;;13.57;;
22603;SDS011;11469;49.024;8.246;2022-11-15T06:31:03;19.55;;;12.55;;
22603;SDS011;11469;49.024;8.246;2022-11-15T06:33:30;19.00;;;12.52;;
22603;SDS011;11469;49.024;8.246;2022-11-15T06:35:55;24.13;;;12.98;;
22603;SDS011;11469;49.024;8.246;2022-11-15T06:38:20;17.08;;;11.43;;
22603;SDS011;11469;49.024;8.246;2022-11-15T06:40:46;16.00;;;10.77;;
22603;SDS011;11469;49.024;8.246;2022-11-15T06:43:11;18.98;;;12.07;;
22603;SDS011;11469;49.024;8.246;2022-11-15T06:45:37;25.60;;;13.27;;
22603;SDS011;11469;49.024;8.246;2022-11-15T06:48:02;18.48;;;12.55;;
22603;SDS011;11469;49.024;8.246;2022-11-15T06:50:28;22.02;;;11.90;;
22603;SDS011;11469;49.024;8.246;2022-11-15T06:52:53;26.30;;;15.70;;
22603;SDS011;11469;49.024;8.246;2022-11-15T06:55:19;24.85;;;14.48;;
22603;SDS011;11469;49.024;8.246;2022-11-15T06:57:48;27.83;;;13.65;;
22603;SDS011;11469;49.024;8.246;2022-11-15T07:00:15;27.65;;;15.75;;
22603;SDS011;11469;49.024;8.246;2022-11-15T07:02:43;28.30;;;13.57;;
22603;SDS011;11469;49.024;8.246;2022-11-15T07:05:08;16.58;;;11.27;;
22603;SDS011;11469;49.024;8.246;2022-11-15T07:07:34;17.40;;;10.88;;
22603;SDS011;11469;49.024;8.246;2022-11-15T07:09:59;16.48;;;11.18;;
22603;SDS011;11469;49.024;8.246;2022-11-15T07:12:24;22.08;;;11.82;;
22603;SDS011;11469;49.024;8.246;2022-11-15T07:14:50;15.05;;;10.30;;
22603;SDS011;11469;49.024;8.246;2022-11-15T07:17:15;18.13;;;10.88;;
22603;SDS011;11469;49.024;8.246;2022-11-15T07:19:41;19.33;;;11.35;;
22603;SDS011;11469;49.024;8.246;2022-11-15T07:22:06;21.35;;;10.98;;
22603;SDS011;11469;49.024;8.246;2022-11-15T07:24:31;17.25;;;11.50;;
22603;SDS011;11469;49.024;8.246;2022-11-15T07:26:57;26.55;;;13.55;;
22603;SDS011;11469;49.024;8.246;2022-11-15T07:29:22;21.27;;;14.48;;
22603;SDS011;11469;49.024;8.246;2022-11-15T07:31:48;25.77;;;15.18;;
22603;SDS011;11469;49.024;8.246;2022-11-15T07:34:15;24.35;;;14.30;;
22603;SDS011;11469;49.024;8.246;2022-11-15T07:36:41;28.92;;;18.65;;
22603;SDS011;11469;49.024;8.246;2022-11-15T07:39:06;32.22;;;18.83;;
22603;SDS011;11469;49.024;8.246;2022-11-15T07:41:31;29.13;;;18.05;;
22603;SDS011;11469;49.024;8.246;2022-11-15T07:43:57;42.38;;;24.52;;
22603;SDS011;11469;49.024;8.246;2022-11-15T07:46:22;52.65;;;32.20;;
22603;SDS011;11469;49.024;8.246;2022-11-15T07:48:48;43.03;;;24.80;;
22603;SDS011;11469;49.024;8.246;2022-11-15T07:51:14;37.35;;;22.27;;
22603;SDS011;11469;49.024;8.246;2022-11-15T07:53:41;32.65;;;19.88;;
22603;SDS011;11469;49.024;8.246;2022-11-15T07:56:07;29.50;;;18.75;;
22603;SDS011;11469;49.024;8.246;2022-11-15T07:58:34;36.42;;;18.45;;
22603;SDS011;11469;49.024;8.246;2022-11-15T08:01:02;27.88;;;16.85;;
22603;SDS011;11469;49.024;8.246;2022-11-15T08:03:29;42.72;;;20.02;;
22603;SDS011;11469;49.024;8.246;2022-11-15T08:05:54;30.45;;;17.35;;
22603;SDS011;11469;49.024;8.246;2022-11-15T08:08:19;32.72;;;19.73;;
22603;SDS011;11469;49.024;8.246;2022-11-15T08:10:45;26.38;;;17.52;;
22603;SDS011;11469;49.024;8.246;2022-11-15T08:13:11;23.83;;;13.95;;
22603;SDS011;11469;49.024;8.246;2022-11-15T08:15:37;27.45;;;15.50;;
22603;SDS011;11469;49.024;8.246;2022-11-15T08:18:04;20.35;;;12.98;;
22603;SDS011;11469;49.024;8.246;2022-11-15T08:20:39;30.45;;;16.33;;
22603;SDS011;11469;49.024;8.246;2022-11-15T08:23:06;30.02;;;15.27;;
22603;SDS011;11469;49.024;8.246;2022-11-15T08:25:33;28.92;;;12.27;;
22603;SDS011;11469;49.024;8.246;2022-11-15T08:28:00;25.95;;;14.40;;
22603;SDS011;11469;49.024;8.246;2022-11-15T08:30:28;25.25;;;13.90;;
22603;SDS011;11469;49.024;8.246;2022-11-15T08:32:55;28.55;;;18.02;;
22603;SDS011;11469;49.024;8.246;2022-11-15T08:35:22;38.45;;;20.65;;
22603;SDS011;11469;49.024;8.246;2022-11-15T08:37:48;33.80;;;18.83;;
22603;SDS011;11469;49.024;8.246;2022-11-15T08:40:14;38.17;;;21.98;;
22603;SDS011;11469;49.024;8.246;2022-11-15T08:42:40;38.65;;;21.20;;
22603;SDS011;11469;49.024;8.246;2022-11-15T08:45:06;32.75;;;19.80;;
22603;SDS011;11469;49.024;8.246;2022-11-15T08:47:32;31.73;;;16.60;;
22603;SDS011;11469;49.024;8.246;2022-11-15T08:49:57;25.27;;;16.77;;
22603;SDS011;11469;49.024;8.246;2022-11-15T08:52:23;46.55;;;25.70;;
22603;SDS011;11469;49.024;8.246;2022-11-15T08:54:48;30.92;;;18.73;;
22603;SDS011;11469;49.024;8.246;2022-11-15T08:57:14;21.13;;;13.50;;
22603;SDS011;11469;49.024;8.246;2022-11-15T08:59:40;25.63;;;14.25;;
22603;SDS011;11469;49.024;8.246;2022-11-15T09:02:05;32.47;;;15.73;;
22603;SDS011;11469;49.024;8.246;2022-11-15T09:04:31;22.40;;;13.25;;
22603;SDS011;11469;49.024;8.246;2022-11-15T09:06:57;21.60;;;12.73;;
22603;SDS011;11469;49.024;8.246;2022-11-15T09:09:22;24.48;;;13.73;;
22603;SDS011;11469;49.024;8.246;2022-11-15T09:11:48;22.30;;;12.60;;
22603;SDS011;11469;49.024;8.246;2022-11-15T09:14:14;17.20;;;11.82;;
22603;SDS011;11469;49.024;8.246;2022-11-15T09:16:39;21.25;;;11.93;;
22603;SDS011;11469;49.024;8.246;2022-11-15T09:19:05;16.83;;;11.18;;
22603;SDS011;11469;49.024;8.246;2022-11-15T09:21:31;19.05;;;11.23;;
22603;SDS011;11469;49.024;8.246;2022-11-15T09:23:57;24.73;;;13.02;;
22603;SDS011;11469;49.024;8.246;2022-11-15T09:26:23;20.08;;;11.45;;
22603;SDS011;11469;49.024;8.246;2022-11-15T09:28:48;22.90;;;12.45;;
22603;SDS011;11469;49.024;8.246;2022-11-15T09:31:14;17.80;;;11.68;;
22603;SDS011;11469;49.024;8.246;2022-11-15T09:33:39;25.48;;;13.77;;
22603;SDS011;11469;49.024;8.246;2022-11-15T09:36:06;20.90;;;13.32;;
22603;SDS011;11469;49.024;8.246;2022-11-15T09:38:33;24.85;;;13.50;;
22603;SDS011;11469;49.024;8.246;2022-11-15T09:41:08;21.42;;;14.25;;
22603;SDS011;11469;49.024;8.246;2022-11-15T09:51:20;20.67;;;13.13;;
22603;SDS011;11469;49.024;8.246;2022-11-15T09:59:07;18.70;;;10.63;;
22603;SDS011;11469;49.024;8.246;2022-11-15T10:04:42;25.60;;;15.32;;
22603;SDS011;11469;49.024;8.246;2022-11-15T10:12:28;16.20;;;10.35;;
22603;SDS011;11469;49.024;8.246;2022-11-15T10:14:58;17.20;;;10.98;;
22603;SDS011;11469;49.024;8.246;2022-11-15T10:17:35;16.02;;;10.18;;
22603;SDS011;11469;49.024;8.246;2022-11-15T10:20:17;16.55;;;9.40;;
22603;SDS011;11469;49.024;8.246;2022-11-15T10:25:23;19.35;;;10.02;;
22603;SDS011;11469;49.024;8.246;2022-11-15T10:30:35;16.85;;;9.32;;
22603;SDS011;11469;49.024;8.246;2022-11-15T10:35:51;13.18;;;9.18;;
22603;SDS011;11469;49.024;8.246;2022-11-15T10:41:37;21.90;;;11.82;;
22603;SDS011;11469;49.024;8.246;2022-11-15T10:46:37;21.13;;;13.20;;
22603;SDS011;11469;49.024;8.246;2022-11-15T10:54:33;34.53;;;17.52;;
22603;SDS011;11469;49.024;8.246;2022-11-15T10:57:20;28.88;;;16.45;;
22603;SDS011;11469;49.024;8.246;2022-11-15T10:59:49;26.63;;;15.20;;
22603;SDS011;11469;49.024;8.246;2022-11-15T11:08:03;29.88;;;15.25;;
22603;SDS011;11469;49.024;8.246;2022-11-15T11:10:29;32.22;;;19.73;;
22603;SDS011;11469;49.024;8.246;2022-11-15T11:12:54;27.15;;;16.65;;
22603;SDS011;11469;49.024;8.246;2022-11-15T11:15:20;23.83;;;15.45;;
22603;SDS011;11469;49.024;8.246;2022-11-15T11:23:02;20.48;;;13.15;;
22603;SDS011;11469;49.024;8.246;2022-11-15T11:25:52;25.88;;;13.18;;
22603;SDS011;11469;49.024;8.246;2022-11-15T11:36:21;16.50;;;7.28;;
22603;SDS011;11469;49.024;8.246;2022-11-15T11:47:01;12.43;;;5.20;;
22603;SDS011;11469;49.024;8.246;2022-11-15T11:52:34;11.35;;;4.93;;
22603;SDS011;11469;49.024;8.246;2022-11-15T11:55:19;9.05;;;4.60;;
22603;SDS011;11469;49.024;8.246;2022-11-15T11:57:57;7.68;;;4.57;;
22603;SDS011;11469;49.024;8.246;2022-11-15T12:00:40;11.05;;;5.50;;
22603;SDS011;11469;49.024;8.246;2022-11-15T12:03:23;12.13;;;4.90;;
22603;SDS011;11469;49.024;8.246;2022-11-15T12:05:54;11.55;;;5.10;;
22603;SDS011;11469;49.024;8.246;2022-11-15T12:11:14;9.02;;;4.85;;
22603;SDS011;11469;49.024;8.246;2022-11-15T12:13:46;12.13;;;5.57;;
22603;SDS011;11469;49.024;8.246;2022-11-15T12:16:22;10.30;;;5.65;;
22603;SDS011;11469;49.024;8.246;2022-11-15T12:18:53;14.93;;;6.15;;
22603;SDS011;11469;49.024;8.246;2022-11-15T12:24:12;11.13;;;5.00;;
22603;SDS011;11469;49.024;8.246;2022-11-15T12:26:41;11.38;;;6.20;;
22603;SDS011;11469;49.024;8.246;2022-11-15T12:29:40;8.05;;;5.00;;
22603;SDS011;11469;49.024;8.246;2022-11-15T12:34:48;15.45;;;6.97;;
22603;SDS011;11469;49.024;8.246;2022-11-15T12:40:16;7.47;;;4.18;;
22603;SDS011;11469;49.024;8.246;2022-11-15T12:43:07;6.65;;;3.97;;
22603;SDS011;11469;49.024;8.246;2022-11-15T12:48:45;6.28;;;3.63;;
22603;SDS011;11469;49.024;8.246;2022-11-15T12:51:01;7.30;;;4.10;;
22603;SDS011;11469;49.024;8.246;2022-11-15T12:53:30;8.23;;;4.03;;
22603;SDS011;11469;49.024;8.246;2022-11-15T13:11:57;10.57;;;4.75;;
22603;SDS011;11469;49.024;8.246;2022-11-15T13:17:02;8.10;;;3.47;;
22603;SDS011;11469;49.024;8.246;2022-11-15T13:19:28;8.80;;;4.05;;
22603;SDS011;11469;49.024;8.246;2022-11-15T13:21:54;7.05;;;3.65;;
22603;SDS011;11469;49.024;8.246;2022-11-15T13:24:38;5.32;;;3.28;;
22603;SDS011;11469;49.024;8.246;2022-11-15T13:27:14;10.18;;;3.53;;
22603;SDS011;11469;49.024;8.246;2022-11-15T13:29:44;7.82;;;3.13;;
22603;SDS011;11469;49.024;8.246;2022-11-15T13:32:13;5.72;;;3.10;;
22603;SDS011;11469;49.024;8.246;2022-11-15T13:34:43;5.10;;;2.72;;
22603;SDS011;11469;49.024;8.246;2022-11-15T13:39:46;9.00;;;3.42;;
22603;SDS011;11469;49.024;8.246;2022-11-15T13:42:16;6.18;;;3.90;;
22603;SDS011;11469;49.024;8.246;2022-11-15T13:45:00;7.07;;;3.88;;
22603;SDS011;11469;49.024;8.246;2022-11-15T13:47:27;7.32;;;3.58;;
22603;SDS011;11469;49.024;8.246;2022-11-15T13:49:56;8.93;;;4.10;;
22603;SDS011;11469;49.024;8.246;2022-11-15T13:52:22;9.55;;;4.18;;
22603;SDS011;11469;49.024;8.246;2022-11-15T13:54:56;10.38;;;5.50;;
22603;SDS011;11469;49.024;8.246;2022-11-15T13:57:25;15.75;;;5.03;;
22603;SDS011;11469;49.024;8.246;2022-11-15T14:02:34;10.50;;;5.10;;
22603;SDS011;11469;49.024;8.246;2022-11-15T14:10:33;14.13;;;6.75;;
22603;SDS011;11469;49.024;8.246;2022-11-15T14:13:00;16.30;;;6.57;;
22603;SDS011;11469;49.024;8.246;2022-11-15T14:15:33;11.52;;;6.30;;
22603;SDS011;11469;49.024;8.246;2022-11-15T14:18:00;14.20;;;5.32;;
22603;SDS011;11469;49.024;8.246;2022-11-15T14:20:27;16.23;;;6.30;;
22603;SDS011;11469;49.024;8.246;2022-11-15T14:22:56;14.15;;;5.55;;
22603;SDS011;11469;49.024;8.246;2022-11-15T14:25:24;9.00;;;5.18;;
22603;SDS011;11469;49.024;8.246;2022-11-15T14:28:11;10.95;;;5.75;;
22603;SDS011;11469;49.024;8.246;2022-11-15T14:30:44;14.27;;;5.90;;
22603;SDS011;11469;49.024;8.246;2022-11-15T14:35:43;8.73;;;4.82;;
22603;SDS011;11469;49.024;8.246;2022-11-15T14:38:08;11.48;;;5.13;;
22603;SDS011;11469;49.024;8.246;2022-11-15T14:40:34;8.88;;;5.13;;
22603;SDS011;11469;49.024;8.246;2022-11-15T14:42:59;10.57;;;5.07;;
22603;SDS011;11469;49.024;8.246;2022-11-15T14:45:26;15.40;;;5.20;;
22603;SDS011;11469;49.024;8.246;2022-11-15T14:47:52;14.52;;;5.78;;
22603;SDS011;11469;49.024;8.246;2022-11-15T14:50:21;22.20;;;10.30;;
22603;SDS011;11469;49.024;8.246;2022-11-15T14:52:47;61.75;;;24.25;;
22603;SDS011;11469;49.024;8.246;2022-11-15T14:57:44;11.90;;;5.97;;
22603;SDS011;11469;49.024;8.246;2022-11-15T15:00:10;24.05;;;14.02;;
22603;SDS011;11469;49.024;8.246;2022-11-15T15:02:37;29.20;;;14.48;;
22603;SDS011;11469;49.024;8.246;2022-11-15T15:05:11;21.15;;;9.55;;
22603;SDS011;11469;49.024;8.246;2022-11-15T15:07:39;13.85;;;5.45;;
22603;SDS011;11469;49.024;8.246;2022-11-15T15:10:05;11.13;;;5.43;;
22603;SDS011;11469;49.024;8.246;2022-11-15T15:12:30;14.52;;;7.00;;
22603;SDS011;11469;49.024;8.246;2022-11-15T15:14:56;15.90;;;6.13;;
22603;SDS011;11469;49.024;8.246;2022-11-15T15:17:21;20.92;;;9.52;;
22603;SDS011;11469;49.024;8.246;2022-11-15T15:19:46;18.48;;;7.00;;
22603;SDS011;11469;49.024;8.246;2022-11-15T15:22:13;13.25;;;5.13;;
22603;SDS011;11469;49.024;8.246;2022-11-15T15:24:40;14.65;;;5.43;;
22603;SDS011;11469;49.024;8.246;2022-11-15T15:27:06;16.65;;;6.90;;
22603;SDS011;11469;49.024;8.246;2022-11-15T15:29:31;12.23;;;6.95;;
22603;SDS011;11469;49.024;8.246;2022-11-15T15:31:57;12.35;;;6.18;;
22603;SDS011;11469;49.024;8.246;2022-11-15T15:34:22;17.27;;;6.32;;
22603;SDS011;11469;49.024;8.246;2022-11-15T15:36:48;26.23;;;11.90;;
22603;SDS011;11469;49.024;8.246;2022-11-15T15:39:13;25.27;;;12.65;;
22603;SDS011;11469;49.024;8.246;2022-11-15T15:41:38;25.48;;;14.80;;
22603;SDS011;11469;49.024;8.246;2022-11-15T15:44:04;24.27;;;12.52;;
22603;SDS011;11469;49.024;8.246;2022-11-15T15:46:30;17.55;;;9.77;;
22603;SDS011;11469;49.024;8.246;2022-11-15T15:48:55;15.20;;;7.20;;
22603;SDS011;11469;49.024;8.246;2022-11-15T15:51:20;13.43;;;5.93;;
22603;SDS011;11469;49.024;8.246;2022-11-15T15:53:46;15.25;;;7.28;;
22603;SDS011;11469;49.024;8.246;2022-11-15T15:56:12;25.77;;;15.57;;
22603;SDS011;11469;49.024;8.246;2022-11-15T15:58:38;36.17;;;20.42;;
22603;SDS011;11469;49.024;8.246;2022-11-15T16:01:03;38.50;;;17.88;;
22603;SDS011;11469;49.024;8.246;2022-11-15T16:03:29;33.40;;;19.80;;
22603;SDS011;11469;49.024;8.246;2022-11-15T16:05:54;38.55;;;22.92;;
22603;SDS011;11469;49.024;8.246;2022-11-15T16:08:20;26.50;;;15.98;;
22603;SDS011;11469;49.024;8.246;2022-11-15T16:10:48;22.20;;;13.00;;
22603;SDS011;11469;49.024;8.246;2022-11-15T16:13:14;22.25;;;11.65;;
22603;SDS011;11469;49.024;8.246;2022-11-15T16:15:39;14.73;;;9.40;;
22603;SDS011;11469;49.024;8.246;2022-11-15T16:18:08;14.20;;;8.73;;
22603;SDS011;11469;49.024;8.246;2022-11-15T16:20:49;12.63;;;7.30;;
22603;SDS011;11469;49.024;8.246;2022-11-15T16:23:17;12.18;;;7.22;;
22603;SDS011;11469;49.024;8.246;2022-11-15T16:25:48;9.77;;;4.78;;
22603;SDS011;11469;49.024;8.246;2022-11-15T16:28:22;11.05;;;4.93;;
22603;SDS011;11469;49.024;8.246;2022-11-15T16:30:58;9.38;;;5.20;;
22603;SDS011;11469;49.024;8.246;2022-11-15T16:33:28;52.65;;;25.77;;
22603;SDS011;11469;49.024;8.246;2022-11-15T16:35:53;34.22;;;17.05;;
22603;SDS011;11469;49.024;8.246;2022-11-15T16:38:19;16.02;;;6.30;;
22603;SDS011;11469;49.024;8.246;2022-11-15T16:40:44;12.00;;;6.88;;
22603;SDS011;11469;49.024;8.246;2022-11-15T16:43:10;20.92;;;12.23;;
22603;SDS011;11469;49.024;8.246;2022-11-15T16:45:35;17.42;;;10.45;;
22603;SDS011;11469;49.024;8.246;2022-11-15T16:48:01;14.07;;;8.57;;
22603;SDS011;11469;49.024;8.246;2022-11-15T16:50:28;19.80;;;10.75;;
22603;SDS011;11469;49.024;8.246;2022-11-15T16:52:55;16.77;;;10.70;;
22603;SDS011;11469;49.024;8.246;2022-11-15T16:55:23;17.35;;;9.30;;
22603;SDS011;11469;49.024;8.246;2022-11-15T16:57:52;36.10;;;17.27;;